aviador You're here:

KMJX Decoded Metar

in _UNIDENTIFIED
Report Time2018-07-18 09:56:00
UTC Time2018-07-18 10:59:00
Flight Rules vfr VFR
Wind330° at 04 kt
W.Decomp.*RWY 06: 0.8 kt HW 3.9 kt LCW
W.Rank330° ranks 10
Current wind is below 330° avg. (7.1)
Visibility9999 m
Phenomena:N/A
Clouds:Scattered 070 Hf
Expected CloudBase > 400 ft AGL from Temp-Dew spread
CeilingNone
Temp19°C (ISA +4)
Dew Point18°C (94% RH)
QNH1012 hPa
Density Alt876 ft
Elevation82 ft
Report Wrong Elevation
Raw Report
KMJX 180956Z AUTO 33004KT 10SM SCT070 19/18 A2987 RMK AO2 SLP119
T01890178=

Extra information for KMJX:More info

Metar Taf Metar & Taf Last 4 Metars F.Rules Stats Wind Profile Meteogram Temp Stats Metar ALERT Operation Metar Decoded Social comments